sensor_id;sensor_type;location;lat;lon;timestamp;pressure;altitude;pressure_sealevel;temperature;humidity
15794;BME280;7999;51.208;4.244;2022-08-19T00:00:37;101421.38;;;17.68;86.29
15794;BME280;7999;51.208;4.244;2022-08-19T00:03:05;101424.16;;;17.58;87.39
15794;BME280;7999;51.208;4.244;2022-08-19T00:05:32;101432.81;;;17.64;86.31
15794;BME280;7999;51.208;4.244;2022-08-19T00:07:59;101422.50;;;17.54;87.52
15794;BME280;7999;51.208;4.244;2022-08-19T00:10:26;101417.28;;;17.51;87.87
15794;BME280;7999;51.208;4.244;2022-08-19T00:12:53;101426.69;;;17.63;87.46
15794;BME280;7999;51.208;4.244;2022-08-19T00:15:21;101416.31;;;17.57;87.11
15794;BME280;7999;51.208;4.244;2022-08-19T00:17:49;101419.88;;;17.53;87.06
15794;BME280;7999;51.208;4.244;2022-08-19T00:20:17;101427.78;;;17.51;86.54
15794;BME280;7999;51.208;4.244;2022-08-19T00:22:45;101437.50;;;17.48;87.31
15794;BME280;7999;51.208;4.244;2022-08-19T00:25:12;101433.06;;;17.51;86.82
15794;BME280;7999;51.208;4.244;2022-08-19T00:27:40;101438.84;;;17.70;87.18
15794;BME280;7999;51.208;4.244;2022-08-19T00:30:07;101439.88;;;17.61;86.49
15794;BME280;7999;51.208;4.244;2022-08-19T00:32:35;101440.03;;;17.54;86.11
15794;BME280;7999;51.208;4.244;2022-08-19T00:35:04;101440.09;;;17.49;85.95
15794;BME280;7999;51.208;4.244;2022-08-19T00:37:30;101442.78;;;17.46;86.03
15794;BME280;7999;51.208;4.244;2022-08-19T00:39:58;101447.22;;;17.44;85.93
15794;BME280;7999;51.208;4.244;2022-08-19T00:42:26;101443.81;;;17.39;86.04
15794;BME280;7999;51.208;4.244;2022-08-19T00:44:54;101442.00;;;17.43;87.18
15794;BME280;7999;51.208;4.244;2022-08-19T00:47:21;101440.59;;;17.23;88.61
15794;BME280;7999;51.208;4.244;2022-08-19T00:49:48;101437.06;;;17.26;88.04
15794;BME280;7999;51.208;4.244;2022-08-19T00:52:18;101438.00;;;17.22;88.86
15794;BME280;7999;51.208;4.244;2022-08-19T00:54:47;101437.13;;;17.21;88.14
15794;BME280;7999;51.208;4.244;2022-08-19T00:57:15;101436.19;;;17.24;87.57
15794;BME280;7999;51.208;4.244;2022-08-19T00:59:43;101437.09;;;17.23;87.69
15794;BME280;7999;51.208;4.244;2022-08-19T01:02:12;101433.59;;;17.22;88.72
15794;BME280;7999;51.208;4.244;2022-08-19T01:04:39;101438.00;;;17.22;88.16
15794;BME280;7999;51.208;4.244;2022-08-19T01:07:06;101421.38;;;17.20;88.16
15794;BME280;7999;51.208;4.244;2022-08-19T01:09:35;101438.84;;;17.22;89.58
15794;BME280;7999;51.208;4.244;2022-08-19T01:12:02;101437.09;;;17.23;90.34
15794;BME280;7999;51.208;4.244;2022-08-19T01:14:29;101442.41;;;17.20;91.36
15794;BME280;7999;51.208;4.244;2022-08-19T01:16:57;101437.94;;;17.26;91.67
15794;BME280;7999;51.208;4.244;2022-08-19T01:19:26;101440.34;;;17.37;91.07
15794;BME280;7999;51.208;4.244;2022-08-19T01:21:58;101445.44;;;17.46;91.08
15794;BME280;7999;51.208;4.244;2022-08-19T01:24:28;101443.53;;;17.54;90.64
15794;BME280;7999;51.208;4.244;2022-08-19T01:26:55;101438.31;;;17.51;90.66
15794;BME280;7999;51.208;4.244;2022-08-19T01:29:22;101438.44;;;17.45;90.85
15794;BME280;7999;51.208;4.244;2022-08-19T01:31:49;101440.84;;;17.57;89.64
15794;BME280;7999;51.208;4.244;2022-08-19T01:34:18;101447.06;;;17.53;88.97
15794;BME280;7999;51.208;4.244;2022-08-19T01:36:46;101444.78;;;17.35;89.55
15794;BME280;7999;51.208;4.244;2022-08-19T01:39:15;101454.06;;;17.54;88.88
15794;BME280;7999;51.208;4.244;2022-08-19T01:41:44;101457.41;;;17.61;88.19
15794;BME280;7999;51.208;4.244;2022-08-19T01:44:10;101455.91;;;17.48;88.62
15794;BME280;7999;51.208;4.244;2022-08-19T01:46:40;101451.53;;;17.47;88.26
15794;BME280;7999;51.208;4.244;2022-08-19T01:49:07;101447.22;;;17.44;88.45
15794;BME280;7999;51.208;4.244;2022-08-19T01:51:34;101445.38;;;17.48;87.90
15794;BME280;7999;51.208;4.244;2022-08-19T01:54:01;101443.72;;;17.44;87.38
15794;BME280;7999;51.208;4.244;2022-08-19T01:56:29;101446.22;;;17.50;86.56
15794;BME280;7999;51.208;4.244;2022-08-19T01:59:00;101438.31;;;17.51;86.20
15794;BME280;7999;51.208;4.244;2022-08-19T02:01:28;101438.38;;;17.48;86.33
15794;BME280;7999;51.208;4.244;2022-08-19T02:03:58;101442.03;;;17.41;86.42
15794;BME280;7999;51.208;4.244;2022-08-19T02:06:26;101448.13;;;17.43;86.23
15794;BME280;7999;51.208;4.244;2022-08-19T02:08:53;101443.06;;;17.33;87.00
15794;BME280;7999;51.208;4.244;2022-08-19T02:11:21;101450.97;;;17.31;86.45
15794;BME280;7999;51.208;4.244;2022-08-19T02:13:48;101454.56;;;17.27;86.83
15794;BME280;7999;51.208;4.244;2022-08-19T02:16:17;101449.47;;;17.18;87.32
15794;BME280;7999;51.208;4.244;2022-08-19T02:18:44;101446.00;;;17.16;87.68
15794;BME280;7999;51.208;4.244;2022-08-19T02:21:14;101448.00;;;17.02;88.26
15794;BME280;7999;51.208;4.244;2022-08-19T02:23:41;101448.81;;;17.05;88.23
15794;BME280;7999;51.208;4.244;2022-08-19T02:26:09;101441.03;;;17.01;88.23
15794;BME280;7999;51.208;4.244;2022-08-19T02:28:35;101439.19;;;17.06;87.84
15794;BME280;7999;51.208;4.244;2022-08-19T02:31:03;101429.63;;;17.02;87.78
15794;BME280;7999;51.208;4.244;2022-08-19T02:33:31;101445.38;;;17.02;88.08
15794;BME280;7999;51.208;4.244;2022-08-19T02:35:58;101441.03;;;17.01;87.95
15794;BME280;7999;51.208;4.244;2022-08-19T02:38:24;101442.84;;;16.95;88.33
15794;BME280;7999;51.208;4.244;2022-08-19T02:40:51;101443.78;;;16.91;88.70
15794;BME280;7999;51.208;4.244;2022-08-19T02:43:18;101439.31;;;16.96;87.68
15794;BME280;7999;51.208;4.244;2022-08-19T02:45:46;101443.81;;;16.90;88.24
15794;BME280;7999;51.208;4.244;2022-08-19T02:48:13;101453.41;;;16.92;88.54
15794;BME280;7999;51.208;4.244;2022-08-19T02:50:42;101459.75;;;16.79;89.09
15794;BME280;7999;51.208;4.244;2022-08-19T02:53:09;101463.22;;;16.81;89.09
15794;BME280;7999;51.208;4.244;2022-08-19T02:55:41;101462.50;;;16.72;89.30
15794;BME280;7999;51.208;4.244;2022-08-19T02:58:08;101466.97;;;16.62;89.82
15794;BME280;7999;51.208;4.244;2022-08-19T03:00:35;101450.97;;;16.80;90.00
15794;BME280;7999;51.208;4.244;2022-08-19T03:03:02;101441.63;;;16.61;90.45
15794;BME280;7999;51.208;4.244;2022-08-19T03:05:29;101443.41;;;16.59;90.81
15794;BME280;7999;51.208;4.244;2022-08-19T03:07:57;101437.31;;;16.57;91.18
15794;BME280;7999;51.208;4.244;2022-08-19T03:10:24;101424.34;;;16.48;91.54
15794;BME280;7999;51.208;4.244;2022-08-19T03:12:50;101429.53;;;16.51;91.36
15794;BME280;7999;51.208;4.244;2022-08-19T03:15:17;101423.25;;;16.61;90.59
15794;BME280;7999;51.208;4.244;2022-08-19T03:17:44;101429.59;;;16.48;91.79
15794;BME280;7999;51.208;4.244;2022-08-19T03:20:10;101423.38;;;16.53;91.47
15794;BME280;7999;51.208;4.244;2022-08-19T03:22:37;101426.06;;;16.49;91.95
15794;BME280;7999;51.208;4.244;2022-08-19T03:25:05;101419.22;;;16.38;91.94
15794;BME280;7999;51.208;4.244;2022-08-19T03:27:33;101419.16;;;16.45;91.66
15794;BME280;7999;51.208;4.244;2022-08-19T03:30:00;101427.00;;;16.43;91.90
15794;BME280;7999;51.208;4.244;2022-08-19T03:32:26;101429.00;;;16.27;93.03
15794;BME280;7999;51.208;4.244;2022-08-19T03:34:53;101433.22;;;16.37;92.27
15794;BME280;7999;51.208;4.244;2022-08-19T03:37:22;101436.72;;;16.38;91.99
15794;BME280;7999;51.208;4.244;2022-08-19T03:39:48;101441.22;;;16.30;92.58
15794;BME280;7999;51.208;4.244;2022-08-19T03:42:16;101439.47;;;16.29;92.92
15794;BME280;7999;51.208;4.244;2022-08-19T03:44:43;101439.56;;;16.24;93.03
15794;BME280;7999;51.208;4.244;2022-08-19T03:47:10;101434.31;;;16.24;93.21
15794;BME280;7999;51.208;4.244;2022-08-19T03:49:41;101429.94;;;16.23;93.49
15794;BME280;7999;51.208;4.244;2022-08-19T03:52:08;101428.22;;;16.22;93.15
15794;BME280;7999;51.208;4.244;2022-08-19T03:54:36;101430.78;;;16.25;92.80
15794;BME280;7999;51.208;4.244;2022-08-19T03:57:04;101431.06;;;16.05;94.12
15794;BME280;7999;51.208;4.244;2022-08-19T03:59:32;101422.19;;;16.14;93.84
15794;BME280;7999;51.208;4.244;2022-08-19T04:02:01;101422.91;;;16.25;92.94
15794;BME280;7999;51.208;4.244;2022-08-19T04:04:31;101425.53;;;16.25;92.86
15794;BME280;7999;51.208;4.244;2022-08-19T04:06:58;101435.19;;;16.23;93.09
15794;BME280;7999;51.208;4.244;2022-08-19T04:09:25;101438.91;;;16.07;94.25
15794;BME280;7999;51.208;4.244;2022-08-19T04:11:53;101439.75;;;16.09;94.01
15794;BME280;7999;51.208;4.244;2022-08-19T04:14:22;101442.22;;;16.21;92.74
15794;BME280;7999;51.208;4.244;2022-08-19T04:16:51;101445.88;;;16.08;93.40
15794;BME280;7999;51.208;4.244;2022-08-19T04:19:19;101435.38;;;16.08;93.72
15794;BME280;7999;51.208;4.244;2022-08-19T04:21:48;101435.38;;;16.10;94.05
15794;BME280;7999;51.208;4.244;2022-08-19T04:24:16;101443.34;;;16.02;93.85
15794;BME280;7999;51.208;4.244;2022-08-19T04:26:42;101446.00;;;15.99;93.91
15794;BME280;7999;51.208;4.244;2022-08-19T04:29:12;101445.16;;;15.98;94.70
15794;BME280;7999;51.208;4.244;2022-08-19T04:31:40;101447.88;;;15.91;95.40
15794;BME280;7999;51.208;4.244;2022-08-19T04:34:09;101442.56;;;15.95;95.29
15794;BME280;7999;51.208;4.244;2022-08-19T04:36:38;101447.66;;;16.06;94.27
15794;BME280;7999;51.208;4.244;2022-08-19T04:39:07;101442.63;;;15.91;94.99
15794;BME280;7999;51.208;4.244;2022-08-19T04:41:34;101434.00;;;15.81;96.22
15794;BME280;7999;51.208;4.244;2022-08-19T04:44:18;101440.84;;;15.93;94.59
15794;BME280;7999;51.208;4.244;2022-08-19T04:46:45;101438.19;;;15.96;94.90
15794;BME280;7999;51.208;4.244;2022-08-19T04:49:15;101432.91;;;15.99;94.48
15794;BME280;7999;51.208;4.244;2022-08-19T04:51:43;101444.28;;;15.98;95.03
15794;BME280;7999;51.208;4.244;2022-08-19T04:54:11;101441.63;;;15.99;94.41
15794;BME280;7999;51.208;4.244;2022-08-19T04:56:38;101437.19;;;16.04;94.52
15794;BME280;7999;51.208;4.244;2022-08-19T04:59:05;101440.72;;;16.02;93.82
15794;BME280;7999;51.208;4.244;2022-08-19T05:01:34;101433.63;;;16.10;93.50
15794;BME280;7999;51.208;4.244;2022-08-19T05:04:02;101436.38;;;15.99;94.45
15794;BME280;7999;51.208;4.244;2022-08-19T05:06:31;101433.84;;;15.95;94.39
15794;BME280;7999;51.208;4.244;2022-08-19T05:08:59;101440.63;;;16.10;93.94
15794;BME280;7999;51.208;4.244;2022-08-19T05:11:27;101443.16;;;16.16;93.95
15794;BME280;7999;51.208;4.244;2022-08-19T05:13:54;101442.31;;;16.14;93.78
15794;BME280;7999;51.208;4.244;2022-08-19T05:16:23;101443.31;;;16.05;94.50
15794;BME280;7999;51.208;4.244;2022-08-19T05:18:51;101443.16;;;16.14;94.44
15794;BME280;7999;51.208;4.244;2022-08-19T05:21:36;101434.38;;;16.20;93.76
15794;BME280;7999;51.208;4.244;2022-08-19T05:24:21;101443.75;;;16.34;93.19
15794;BME280;7999;51.208;4.244;2022-08-19T05:26:49;101443.75;;;16.34;93.39
15794;BME280;7999;51.208;4.244;2022-08-19T05:29:16;101452.38;;;16.43;93.17
15794;BME280;7999;51.208;4.244;2022-08-19T05:31:44;101457.69;;;16.39;93.31
15794;BME280;7999;51.208;4.244;2022-08-19T05:34:11;101450.44;;;16.57;92.48
15794;BME280;7999;51.208;4.244;2022-08-19T05:36:40;101452.88;;;16.71;91.83
15794;BME280;7999;51.208;4.244;2022-08-19T05:39:09;101446.72;;;16.73;91.84
15794;BME280;7999;51.208;4.244;2022-08-19T05:41:40;101451.16;;;16.68;91.79
15794;BME280;7999;51.208;4.244;2022-08-19T05:44:07;101444.06;;;16.76;91.78
15794;BME280;7999;51.208;4.244;2022-08-19T05:46:34;101456.22;;;16.82;91.86
15794;BME280;7999;51.208;4.244;2022-08-19T05:49:02;101450.56;;;17.05;90.71
15794;BME280;7999;51.208;4.244;2022-08-19T05:51:30;101451.91;;;17.28;89.56
15794;BME280;7999;51.208;4.244;2022-08-19T05:53:59;101449.69;;;17.52;88.46
15794;BME280;7999;51.208;4.244;2022-08-19T05:56:26;101452.34;;;17.50;88.36
15794;BME280;7999;51.208;4.244;2022-08-19T05:58:53;101452.03;;;17.69;88.27
15794;BME280;7999;51.208;4.244;2022-08-19T06:01:20;101454.28;;;17.88;87.23
15794;BME280;7999;51.208;4.244;2022-08-19T06:03:47;101456.00;;;17.89;87.69
15794;BME280;7999;51.208;4.244;2022-08-19T06:06:15;101448.38;;;18.17;86.51
15794;BME280;7999;51.208;4.244;2022-08-19T06:08:42;101451.34;;;18.02;86.76
15794;BME280;7999;51.208;4.244;2022-08-19T06:11:16;101452.41;;;17.94;87.48
15794;BME280;7999;51.208;4.244;2022-08-19T06:13:44;101459.56;;;17.87;88.60
15794;BME280;7999;51.208;4.244;2022-08-19T06:16:12;101457.69;;;17.92;88.30
15794;BME280;7999;51.208;4.244;2022-08-19T06:18:45;101458.72;;;17.85;88.77
15794;BME280;7999;51.208;4.244;2022-08-19T06:21:12;101463.72;;;17.97;88.54
15794;BME280;7999;51.208;4.244;2022-08-19T06:23:39;101457.56;;;17.98;88.99
15794;BME280;7999;51.208;4.244;2022-08-19T06:26:07;101460.91;;;18.06;88.63
15794;BME280;7999;51.208;4.244;2022-08-19T06:28:39;101454.94;;;17.98;89.39
15794;BME280;7999;51.208;4.244;2022-08-19T06:31:12;101454.25;;;17.90;89.48
15794;BME280;7999;51.208;4.244;2022-08-19T06:33:40;101458.38;;;18.02;89.83
15794;BME280;7999;51.208;4.244;2022-08-19T06:36:07;101457.16;;;18.18;89.07
15794;BME280;7999;51.208;4.244;2022-08-19T06:38:34;101460.59;;;18.20;88.91
15794;BME280;7999;51.208;4.244;2022-08-19T06:41:01;101460.69;;;18.17;89.37
15794;BME280;7999;51.208;4.244;2022-08-19T06:43:28;101461.13;;;18.37;89.92
15794;BME280;7999;51.208;4.244;2022-08-19T06:45:56;101452.38;;;18.34;88.67
15794;BME280;7999;51.208;4.244;2022-08-19T06:48:24;101457.41;;;18.46;88.66
15794;BME280;7999;51.208;4.244;2022-08-19T06:50:51;101447.38;;;18.60;88.20
15794;BME280;7999;51.208;4.244;2022-08-19T06:53:18;101458.50;;;18.74;88.14
15794;BME280;7999;51.208;4.244;2022-08-19T06:55:45;101464.97;;;18.60;88.17
15794;BME280;7999;51.208;4.244;2022-08-19T06:58:11;101470.66;;;18.41;89.26
15794;BME280;7999;51.208;4.244;2022-08-19T07:00:39;101473.34;;;18.40;89.69
15794;BME280;7999;51.208;4.244;2022-08-19T07:03:07;101476.25;;;18.26;90.49
15794;BME280;7999;51.208;4.244;2022-08-19T07:05:37;101477.41;;;18.14;91.23
15794;BME280;7999;51.208;4.244;2022-08-19T07:11:50;101468.75;;;18.48;90.88
15794;BME280;7999;51.208;4.244;2022-08-19T07:14:19;101467.78;;;18.52;90.58
15794;BME280;7999;51.208;4.244;2022-08-19T07:16:47;101463.06;;;18.68;89.56
15794;BME280;7999;51.208;4.244;2022-08-19T07:19:19;101470.47;;;18.88;88.79
15794;BME280;7999;51.208;4.244;2022-08-19T07:21:46;101461.97;;;18.76;89.27
15794;BME280;7999;51.208;4.244;2022-08-19T07:24:14;101472.00;;;18.98;89.42
15794;BME280;7999;51.208;4.244;2022-08-19T07:26:42;101468.22;;;19.08;88.46
15794;BME280;7999;51.208;4.244;2022-08-19T07:29:10;101470.59;;;19.17;87.98
15794;BME280;7999;51.208;4.244;2022-08-19T07:31:37;101470.69;;;19.14;87.26
15794;BME280;7999;51.208;4.244;2022-08-19T07:34:05;101471.81;;;19.04;88.43
15794;BME280;7999;51.208;4.244;2022-08-19T07:36:35;101471.81;;;19.04;88.32
15794;BME280;7999;51.208;4.244;2022-08-19T07:39:03;101473.91;;;19.25;87.76
15794;BME280;7999;51.208;4.244;2022-08-19T07:41:31;101476.97;;;19.42;86.62
15794;BME280;7999;51.208;4.244;2022-08-19T07:43:58;101483.22;;;19.72;85.13
15794;BME280;7999;51.208;4.244;2022-08-19T07:46:29;101482.69;;;19.60;85.55
15794;BME280;7999;51.208;4.244;2022-08-19T07:48:57;101490.31;;;19.36;86.71
15794;BME280;7999;51.208;4.244;2022-08-19T07:51:23;101496.94;;;19.19;87.43
15794;BME280;7999;51.208;4.244;2022-08-19T07:53:54;101496.50;;;19.35;87.36
15794;BME280;7999;51.208;4.244;2022-08-19T07:56:21;101492.72;;;19.45;87.06
15794;BME280;7999;51.208;4.244;2022-08-19T07:58:49;101490.78;;;19.54;86.79
15794;BME280;7999;51.208;4.244;2022-08-19T08:01:18;101490.72;;;19.55;86.30
15794;BME280;7999;51.208;4.244;2022-08-19T08:03:46;101494.69;;;19.70;86.68
15794;BME280;7999;51.208;4.244;2022-08-19T08:06:31;101497.03;;;19.82;85.10
15794;BME280;7999;51.208;4.244;2022-08-19T08:09:18;101491.56;;;20.18;84.87
15794;BME280;7999;51.208;4.244;2022-08-19T08:11:50;101489.31;;;20.35;83.55
15794;BME280;7999;51.208;4.244;2022-08-19T08:14:18;101489.84;;;20.17;83.05
15794;BME280;7999;51.208;4.244;2022-08-19T08:16:46;101487.41;;;20.11;83.72
15794;BME280;7999;51.208;4.244;2022-08-19T08:19:14;101495.94;;;19.89;84.75
15794;BME280;7999;51.208;4.244;2022-08-19T08:21:41;101495.69;;;19.97;84.24
15794;BME280;7999;51.208;4.244;2022-08-19T08:24:11;101503.03;;;19.87;84.62
15794;BME280;7999;51.208;4.244;2022-08-19T08:26:39;101494.56;;;19.76;85.32
15794;BME280;7999;51.208;4.244;2022-08-19T08:29:08;101504.47;;;19.97;84.41
15794;BME280;7999;51.208;4.244;2022-08-19T08:31:36;101502.66;;;19.99;84.63
15794;BME280;7999;51.208;4.244;2022-08-19T08:34:03;101513.06;;;20.05;84.14
15794;BME280;7999;51.208;4.244;2022-08-19T08:36:30;101509.16;;;20.19;84.17
15794;BME280;7999;51.208;4.244;2022-08-19T08:38:59;101519.63;;;20.22;83.30
15794;BME280;7999;51.208;4.244;2022-08-19T08:41:28;101520.38;;;19.96;84.71
15794;BME280;7999;51.208;4.244;2022-08-19T08:43:59;101516.03;;;19.93;85.00
15794;BME280;7999;51.208;4.244;2022-08-19T08:46:30;101517.78;;;19.94;85.03
15794;BME280;7999;51.208;4.244;2022-08-19T08:49:02;101511.50;;;19.98;84.48
15794;BME280;7999;51.208;4.244;2022-08-19T08:51:36;101517.78;;;19.94;84.82
15794;BME280;7999;51.208;4.244;2022-08-19T08:54:05;101523.53;;;20.09;84.59
15794;BME280;7999;51.208;4.244;2022-08-19T08:56:33;101523.59;;;20.07;85.02
15794;BME280;7999;51.208;4.244;2022-08-19T08:59:03;101522.00;;;20.01;84.67
15794;BME280;7999;51.208;4.244;2022-08-19T09:01:32;101519.91;;;20.13;84.62
15794;BME280;7999;51.208;4.244;2022-08-19T09:03:59;101523.78;;;19.99;84.90
15794;BME280;7999;51.208;4.244;2022-08-19T09:06:29;101518.50;;;19.99;85.12
15794;BME280;7999;51.208;4.244;2022-08-19T09:09:00;101530.19;;;19.91;85.53
15794;BME280;7999;51.208;4.244;2022-08-19T09:11:33;101522.91;;;19.99;85.67
15794;BME280;7999;51.208;4.244;2022-08-19T09:14:08;101516.63;;;20.04;85.20
15794;BME280;7999;51.208;4.244;2022-08-19T09:16:39;101527.31;;;19.98;85.19
15794;BME280;7999;51.208;4.244;2022-08-19T09:19:07;101530.44;;;20.13;85.13
15794;BME280;7999;51.208;4.244;2022-08-19T09:21:36;101526.19;;;20.09;85.58
15794;BME280;7999;51.208;4.244;2022-08-19T09:24:04;101524.63;;;20.01;85.81
15794;BME280;7999;51.208;4.244;2022-08-19T09:26:32;101535.22;;;20.31;84.52
15794;BME280;7999;51.208;4.244;2022-08-19T09:28:59;101529.94;;;20.31;84.54
15794;BME280;7999;51.208;4.244;2022-08-19T09:31:29;101531.13;;;20.19;85.60
15794;BME280;7999;51.208;4.244;2022-08-19T09:33:56;101539.28;;;20.12;85.87
15794;BME280;7999;51.208;4.244;2022-08-19T09:36:26;101533.53;;;20.27;85.95
15794;BME280;7999;51.208;4.244;2022-08-19T09:38:54;101538.41;;;20.42;85.28
15794;BME280;7999;51.208;4.244;2022-08-19T09:41:22;101546.25;;;20.45;85.21
15794;BME280;7999;51.208;4.244;2022-08-19T09:43:51;101542.91;;;20.08;88.56
15794;BME280;7999;51.208;4.244;2022-08-19T09:46:21;101544.66;;;20.09;88.95
15794;BME280;7999;51.208;4.244;2022-08-19T09:48:50;101548.59;;;20.23;87.93
15794;BME280;7999;51.208;4.244;2022-08-19T09:51:18;101553.88;;;20.23;87.69
15794;BME280;7999;51.208;4.244;2022-08-19T09:53:48;101548.13;;;20.42;87.05
15794;BME280;7999;51.208;4.244;2022-08-19T09:56:16;101546.09;;;20.19;87.22
15794;BME280;7999;51.208;4.244;2022-08-19T09:58:44;101552.88;;;20.29;86.61
15794;BME280;7999;51.208;4.244;2022-08-19T10:01:15;101553.22;;;20.17;87.31
15794;BME280;7999;51.208;4.244;2022-08-19T10:03:42;101547.31;;;20.38;86.58
15794;BME280;7999;51.208;4.244;2022-08-19T10:06:11;101547.72;;;20.54;85.77
15794;BME280;7999;51.208;4.244;2022-08-19T10:08:38;101550.41;;;20.52;85.88
15794;BME280;7999;51.208;4.244;2022-08-19T10:11:05;101541.31;;;20.62;85.38
15794;BME280;7999;51.208;4.244;2022-08-19T10:13:34;101551.22;;;20.84;84.53
15794;BME280;7999;51.208;4.244;2022-08-19T10:16:03;101546.31;;;20.99;83.83
15794;BME280;7999;51.208;4.244;2022-08-19T10:18:30;101538.13;;;21.07;83.17
15794;BME280;7999;51.208;4.244;2022-08-19T10:21:03;101539.25;;;21.00;83.57
15794;BME280;7999;51.208;4.244;2022-08-19T10:23:32;101534.81;;;21.01;83.07
15794;BME280;7999;51.208;4.244;2022-08-19T10:25:59;101529.47;;;21.02;83.52
15794;BME280;7999;51.208;4.244;2022-08-19T10:28:26;101534.31;;;21.16;82.35
15794;BME280;7999;51.208;4.244;2022-08-19T10:30:53;101523.31;;;21.29;82.18
15794;BME280;7999;51.208;4.244;2022-08-19T10:33:20;101527.22;;;21.18;82.44
15794;BME280;7999;51.208;4.244;2022-08-19T10:35:47;101531.06;;;21.34;81.35
15794;BME280;7999;51.208;4.244;2022-08-19T10:38:15;101525.50;;;21.43;80.96
15794;BME280;7999;51.208;4.244;2022-08-19T10:40:43;101526.63;;;21.61;80.45
15794;BME280;7999;51.208;4.244;2022-08-19T10:43:10;101534.06;;;21.50;80.17
15794;BME280;7999;51.208;4.244;2022-08-19T10:45:37;101529.75;;;21.72;79.49
15794;BME280;7999;51.208;4.244;2022-08-19T10:48:05;101523.56;;;21.73;78.59
15794;BME280;7999;51.208;4.244;2022-08-19T11:44:20;101513.41;;;23.83;69.09
15794;BME280;7999;51.208;4.244;2022-08-19T11:46:47;101510.22;;;23.74;68.40
15794;BME280;7999;51.208;4.244;2022-08-19T11:49:14;101506.50;;;23.79;68.65
15794;BME280;7999;51.208;4.244;2022-08-19T11:51:42;101517.72;;;23.44;68.38
15794;BME280;7999;51.208;4.244;2022-08-19T11:54:10;101506.25;;;23.44;68.46
15794;BME280;7999;51.208;4.244;2022-08-19T11:56:37;101510.44;;;23.90;67.74
15794;BME280;7999;51.208;4.244;2022-08-19T11:59:05;101509.78;;;23.65;68.65
15794;BME280;7999;51.208;4.244;2022-08-19T12:01:34;101506.19;;;23.66;68.44
15794;BME280;7999;51.208;4.244;2022-08-19T12:04:01;101509.59;;;23.69;68.67
15794;BME280;7999;51.208;4.244;2022-08-19T12:06:30;101506.13;;;24.25;67.91
15794;BME280;7999;51.208;4.244;2022-08-19T12:09:01;101508.34;;;23.97;66.94
15794;BME280;7999;51.208;4.244;2022-08-19T12:11:29;101506.78;;;23.72;68.70
15794;BME280;7999;51.208;4.244;2022-08-19T12:13:55;101505.84;;;23.94;68.05
15794;BME280;7999;51.208;4.244;2022-08-19T12:16:23;101499.53;;;24.15;66.71
15794;BME280;7999;51.208;4.244;2022-08-19T12:18:52;101500.19;;;23.81;67.83
15794;BME280;7999;51.208;4.244;2022-08-19T12:21:21;101507.19;;;23.84;67.35
15794;BME280;7999;51.208;4.244;2022-08-19T12:23:51;101500.69;;;23.70;67.89
15794;BME280;7999;51.208;4.244;2022-08-19T12:26:18;101500.25;;;23.80;68.34
15794;BME280;7999;51.208;4.244;2022-08-19T12:28:45;101495.50;;;23.67;68.45
15794;BME280;7999;51.208;4.244;2022-08-19T12:31:13;101495.50;;;23.88;68.64
15794;BME280;7999;51.208;4.244;2022-08-19T12:33:40;101495.41;;;24.28;66.56
15794;BME280;7999;51.208;4.244;2022-08-19T12:36:10;101493.59;;;24.29;65.97
15794;BME280;7999;51.208;4.244;2022-08-19T12:38:38;101498.78;;;23.93;67.47
15794;BME280;7999;51.208;4.244;2022-08-19T12:41:05;101493.78;;;23.87;67.42
15794;BME280;7999;51.208;4.244;2022-08-19T12:43:33;101493.78;;;23.66;68.10
15794;BME280;7999;51.208;4.244;2022-08-19T12:46:00;101493.78;;;23.66;67.55
15794;BME280;7999;51.208;4.244;2022-08-19T12:48:27;101482.94;;;23.51;67.79
15794;BME280;7999;51.208;4.244;2022-08-19T12:50:54;101489.59;;;24.00;66.72
15794;BME280;7999;51.208;4.244;2022-08-19T12:53:22;101500.56;;;24.13;66.74
15794;BME280;7999;51.208;4.244;2022-08-19T12:55:54;101502.69;;;24.61;65.15
15794;BME280;7999;51.208;4.244;2022-08-19T12:58:21;101480.94;;;24.53;64.47
15794;BME280;7999;51.208;4.244;2022-08-19T13:00:48;101474.38;;;24.43;64.64
15794;BME280;7999;51.208;4.244;2022-08-19T13:03:15;101471.56;;;24.63;62.91
15794;BME280;7999;51.208;4.244;2022-08-19T13:05:42;101470.97;;;25.11;64.00
15794;BME280;7999;51.208;4.244;2022-08-19T13:08:08;101463.91;;;25.45;61.67
15794;BME280;7999;51.208;4.244;2022-08-19T13:10:37;101470.31;;;25.58;61.24
15794;BME280;7999;51.208;4.244;2022-08-19T13:13:05;101461.84;;;26.00;60.60
15794;BME280;7999;51.208;4.244;2022-08-19T13:15:33;101457.63;;;26.28;58.29
15794;BME280;7999;51.208;4.244;2022-08-19T13:18:00;101457.63;;;25.96;59.70
15794;BME280;7999;51.208;4.244;2022-08-19T13:20:27;101456.88;;;26.26;59.05
15794;BME280;7999;51.208;4.244;2022-08-19T13:22:54;101454.28;;;27.17;56.37
15794;BME280;7999;51.208;4.244;2022-08-19T13:25:22;101457.78;;;26.42;57.96
15794;BME280;7999;51.208;4.244;2022-08-19T13:27:51;101456.13;;;27.01;56.98
15794;BME280;7999;51.208;4.244;2022-08-19T13:30:18;101449.72;;;26.73;57.18
15794;BME280;7999;51.208;4.244;2022-08-19T13:33:05;101447.97;;;26.58;57.13
15794;BME280;7999;51.208;4.244;2022-08-19T13:35:42;101449.81;;;26.56;56.39
15794;BME280;7999;51.208;4.244;2022-08-19T13:38:11;101454.16;;;26.43;56.58
15794;BME280;7999;51.208;4.244;2022-08-19T13:40:38;101447.38;;;25.55;58.68
15794;BME280;7999;51.208;4.244;2022-08-19T13:43:07;101443.00;;;25.20;60.68
15794;BME280;7999;51.208;4.244;2022-08-19T13:45:34;101450.25;;;25.01;61.21
15794;BME280;7999;51.208;4.244;2022-08-19T13:48:02;101444.75;;;25.04;61.84
15794;BME280;7999;51.208;4.244;2022-08-19T13:50:32;101446.84;;;24.97;62.59
15794;BME280;7999;51.208;4.244;2022-08-19T13:52:59;101447.66;;;24.99;62.23
15794;BME280;7999;51.208;4.244;2022-08-19T13:55:26;101446.91;;;24.78;62.45
15794;BME280;7999;51.208;4.244;2022-08-19T13:57:53;101452.31;;;24.41;64.08
15794;BME280;7999;51.208;4.244;2022-08-19T14:00:23;101449.19;;;24.50;64.51
15794;BME280;7999;51.208;4.244;2022-08-19T14:02:52;101443.63;;;24.73;63.49